Time;durP1;ratioP1;P1;durP2;ratioP2;P2;SDS_P1;SDS_P2;PMS_P1;PMS_P2;Temp;Humidity;BMP_temperature;BMP_pressure;BME280_temperature;BME280_humidity;BME280_pressure;Samples;Min_cycle;Max_cycle;Signal;HPM_P1;HPM_P2
2023/01/07 00:02:15;;;;;;;;;;;;;;;19.12;69.04;101704.03;7397138;19;1905;-43
2023/01/07 00:04:43;;;;;;;;;;;;;;;19.11;68.38;101713.06;7398939;19;1898;-44
2023/01/07 00:07:12;;;;;;;;;;;;;;;19.04;68.33;101715.34;7396614;19;2020;-44
2023/01/07 00:09:41;;;;;;;;;;;;;;;19.01;67.91;101718.25;7398299;19;1666;-44
2023/01/07 00:12:09;;;;;;;;;;;;;;;19.02;67.54;101720.81;7399361;19;1839;-44
2023/01/07 00:14:38;;;;;;;;;;;;;;;18.96;67.71;101720.38;7398693;19;1913;-44
2023/01/07 00:17:09;;;;;;;;;;;;;;;18.94;67.51;101704.44;7397002;19;1965;-44
2023/01/07 00:19:37;;;;;;;;;;;;;;;18.90;67.55;101727.09;7398628;19;1950;-44
2023/01/07 00:22:05;;;;;;;;;;;;;;;18.85;67.49;101723.88;7400276;19;1951;-44
2023/01/07 00:24:33;;;;;;;;;;;;;;;18.83;67.13;101739.19;7405903;19;1749;-44
2023/01/07 00:27:02;;;;;;;;;;;;;;;18.81;67.16;101727.75;7406156;19;1949;-44
2023/01/07 00:29:30;;;;;;;;;;;;;;;18.77;66.93;101727.06;7403731;19;1734;-44
2023/01/07 00:31:58;;;;;;;;;;;;;;;18.76;66.71;101728.03;7405660;19;1620;-44
2023/01/07 00:34:29;;;;;;;;;;;;;;;18.78;66.66;101739.50;7405877;19;1766;-44
2023/01/07 00:37:48;;;;;;;;;;;;;;;18.75;66.69;101726.31;7401246;19;1861;-44
2023/01/07 00:39:46;;;;;;;;;;;;;;;18.75;66.44;101726.31;7401306;19;2068;-43
2023/01/07 00:44:55;;;;;;;;;;;;;;;18.74;66.64;101734.47;7400782;19;1956;-44
2023/01/07 00:47:23;;;;;;;;;;;;;;;18.69;66.20;101730.28;7401535;19;1882;-44
2023/01/07 00:49:54;;;;;;;;;;;;;;;18.66;66.24;101725.16;7402379;19;2091;-43
2023/01/07 00:52:22;;;;;;;;;;;;;;;18.62;66.38;101718.31;7402596;19;1954;-43
2023/01/07 00:54:51;;;;;;;;;;;;;;;18.62;66.24;101734.41;7401070;19;1622;-44
2023/01/07 00:57:19;;;;;;;;;;;;;;;18.59;65.91;101744.47;7399961;19;2112;-44
2023/01/07 00:59:47;;;;;;;;;;;;;;;18.59;65.90;101753.34;7401596;19;1929;-44
2023/01/07 01:02:17;;;;;;;;;;;;;;;18.56;65.88;101734.84;7400537;19;1904;-44
2023/01/07 01:04:45;;;;;;;;;;;;;;;18.63;66.55;101730.72;7400269;19;1751;-44
2023/01/07 01:07:16;;;;;;;;;;;;;;;18.83;66.64;101726.66;7401062;19;2105;-44
2023/01/07 01:09:44;;;;;;;;;;;;;;;19.30;65.79;101726.81;7401354;19;1473;-44
2023/01/07 01:12:13;;;;;;;;;;;;;;;19.80;64.67;101727.53;7402505;19;1859;-44
2023/01/07 01:14:41;;;;;;;;;;;;;;;20.25;63.36;101714.22;7401491;19;1872;-44
2023/01/07 01:17:10;;;;;;;;;;;;;;;20.50;62.98;101723.00;7399770;19;1868;-44
2023/01/07 01:19:38;;;;;;;;;;;;;;;20.56;63.01;101719.84;7401138;19;1827;-44
2023/01/07 01:22:06;;;;;;;;;;;;;;;20.50;62.81;101720.31;7402154;19;1826;-44
2023/01/07 01:24:37;;;;;;;;;;;;;;;20.00;62.95;101711.75;7400640;19;1669;-44
2023/01/07 01:27:05;;;;;;;;;;;;;;;19.54;64.01;101715.22;7401843;19;1728;-44
2023/01/07 01:29:34;;;;;;;;;;;;;;;19.28;64.50;101716.22;7399288;19;1714;-44
2023/01/07 01:32:02;;;;;;;;;;;;;;;19.14;64.62;101726.22;7400586;19;1730;-44
2023/01/07 01:34:30;;;;;;;;;;;;;;;19.02;64.53;101722.63;7399610;19;1865;-44
2023/01/07 01:36:59;;;;;;;;;;;;;;;18.95;64.58;101727.59;7400469;19;2229;-44
2023/01/07 01:39:27;;;;;;;;;;;;;;;18.88;64.45;101731.69;7399656;19;1819;-44
2023/01/07 01:41:58;;;;;;;;;;;;;;;18.82;64.46;101732.13;7401609;19;1518;-44
2023/01/07 01:44:44;;;;;;;;;;;;;;;18.80;64.55;101728.69;7400673;19;1678;-44
2023/01/07 01:47:16;;;;;;;;;;;;;;;18.76;64.48;101716.44;7400657;19;1763;-44
2023/01/07 01:49:47;;;;;;;;;;;;;;;18.76;64.30;101713.78;7400600;19;1631;-44
2023/01/07 01:52:18;;;;;;;;;;;;;;;18.73;64.48;101727.41;7400761;19;1650;-44
2023/01/07 01:54:49;;;;;;;;;;;;;;;18.65;64.35;101726.13;7400241;19;1804;-44
2023/01/07 01:57:21;;;;;;;;;;;;;;;18.65;64.15;101722.59;7399280;19;1873;-44
2023/01/07 01:59:51;;;;;;;;;;;;;;;18.59;64.17;101723.88;7400233;19;1513;-44
2023/01/07 02:02:24;;;;;;;;;;;;;;;18.65;64.39;101742.19;7399889;19;1797;-43
2023/01/07 02:04:53;;;;;;;;;;;;;;;18.57;64.08;101722.28;7399957;19;1883;-44
2023/01/07 02:07:22;;;;;;;;;;;;;;;18.54;64.10;101728.69;7399778;19;2070;-44
2023/01/07 02:09:56;;;;;;;;;;;;;;;18.58;64.11;101732.91;7400208;19;1872;-44
2023/01/07 02:12:32;;;;;;;;;;;;;;;18.47;64.01;101722.94;7399598;19;2023;-44
2023/01/07 02:15:09;;;;;;;;;;;;;;;18.47;64.06;101727.44;7399801;19;1543;-43
2023/01/07 02:17:43;;;;;;;;;;;;;;;18.47;64.32;101720.25;7398731;19;1849;-43
2023/01/07 02:20:26;;;;;;;;;;;;;;;18.46;64.29;101712.31;7400589;19;1880;-43
2023/01/07 02:23:10;;;;;;;;;;;;;;;18.35;63.51;101737.19;7399515;19;1591;-44
2023/01/07 02:25:48;;;;;;;;;;;;;;;18.51;65.21;101723.56;7399601;19;1746;-43
2023/01/07 02:28:33;;;;;;;;;;;;;;;18.92;64.72;101719.78;7399319;19;1848;-44
2023/01/07 02:31:16;;;;;;;;;;;;;;;19.39;63.96;101718.06;7399339;19;2068;-44
2023/01/07 02:33:52;;;;;;;;;;;;;;;19.83;62.99;101719.25;7399027;19;1681;-44
2023/01/07 02:36:29;;;;;;;;;;;;;;;20.23;61.96;101712.59;7399673;19;1851;-44
2023/01/07 02:39:04;;;;;;;;;;;;;;;20.32;61.68;101719.09;7398930;19;1838;-44
2023/01/07 02:41:39;;;;;;;;;;;;;;;20.32;61.59;101732.53;7399259;19;1829;-43
2023/01/07 02:44:13;;;;;;;;;;;;;;;19.94;61.57;101720.28;7398763;19;1876;-44
2023/01/07 02:46:44;;;;;;;;;;;;;;;19.46;62.56;101719.34;7398293;19;1911;-44
2023/01/07 02:49:16;;;;;;;;;;;;;;;19.23;62.98;101730.91;7398623;19;1647;-44
2023/01/07 02:51:46;;;;;;;;;;;;;;;19.10;63.02;101732.78;7400587;19;1884;-44
2023/01/07 02:54:18;;;;;;;;;;;;;;;19.02;62.93;101727.97;7401994;19;1946;-44
2023/01/07 02:56:54;;;;;;;;;;;;;;;18.93;63.46;101732.19;7402126;19;1843;-44
2023/01/07 02:59:39;;;;;;;;;;;;;;;18.84;63.42;101743.56;7400870;19;1972;-44
2023/01/07 03:02:21;;;;;;;;;;;;;;;18.79;63.36;101729.63;7399296;19;1803;-44
2023/01/07 03:05:05;;;;;;;;;;;;;;;18.71;63.29;101735.53;7398070;19;2014;-44
2023/01/07 03:07:40;;;;;;;;;;;;;;;18.64;63.21;101729.78;7399877;19;1732;-44
2023/01/07 03:10:13;;;;;;;;;;;;;;;18.63;63.19;101728.06;7400745;19;1984;-44
2023/01/07 03:12:44;;;;;;;;;;;;;;;18.60;63.56;101725.59;7401009;19;1624;-43
2023/01/07 03:15:16;;;;;;;;;;;;;;;18.60;63.60;101746.16;7401008;19;1630;-43
2023/01/07 03:17:46;;;;;;;;;;;;;;;18.60;63.21;101743.47;7399591;19;1863;-43
2023/01/07 03:20:17;;;;;;;;;;;;;;;18.53;63.54;101728.84;7399754;19;1748;-43
2023/01/07 03:22:47;;;;;;;;;;;;;;;18.54;63.26;101722.50;7400446;19;1747;-43
2023/01/07 03:25:15;;;;;;;;;;;;;;;18.49;63.46;101731.72;7401344;19;1732;-43
2023/01/07 03:27:45;;;;;;;;;;;;;;;18.51;63.33;101726.25;7400948;19;2086;-43
2023/01/07 03:30:16;;;;;;;;;;;;;;;18.44;63.21;101735.66;7398789;19;2025;-43
2023/01/07 03:32:48;;;;;;;;;;;;;;;18.40;62.81;101739.53;7400815;19;1970;-44
2023/01/07 03:35:20;;;;;;;;;;;;;;;18.47;64.34;101735.47;7399020;19;1905;-44
2023/01/07 03:37:50;;;;;;;;;;;;;;;18.72;64.14;101726.56;7398865;19;1902;-44
2023/01/07 03:40:20;;;;;;;;;;;;;;;19.19;63.07;101726.75;7398565;19;2078;-44
2023/01/07 03:42:47;;;;;;;;;;;;;;;19.68;62.38;101723.09;7400648;19;1045;-44
2023/01/07 03:45:17;;;;;;;;;;;;;;;20.14;61.10;101716.88;7401090;19;1023;-44
2023/01/07 03:47:47;;;;;;;;;;;;;;;20.33;60.66;101718.09;7399523;19;1930;-44
2023/01/07 03:50:15;;;;;;;;;;;;;;;20.32;60.93;101733.38;7399981;19;1741;-43
2023/01/07 03:52:47;;;;;;;;;;;;;;;19.91;61.80;101717.81;7399078;19;1871;-44
2023/01/07 03:55:15;;;;;;;;;;;;;;;19.17;64.25;101736.75;7399459;19;1725;-44
2023/01/07 03:57:43;;;;;;;;;;;;;;;18.67;65.99;101752.81;7404994;19;1957;-43
2023/01/07 04:00:13;;;;;;;;;;;;;;;18.40;66.64;101734.19;7406589;19;1988;-44
2023/01/07 04:02:41;;;;;;;;;;;;;;;18.24;67.37;101734.41;7406456;19;1808;-44
2023/01/07 04:05:10;;;;;;;;;;;;;;;18.13;67.34;101735.16;7406019;19;1747;-44
2023/01/07 04:07:39;;;;;;;;;;;;;;;18.06;68.11;101768.66;7406063;19;1795;-44
2023/01/07 04:10:11;;;;;;;;;;;;;;;17.98;68.41;101765.63;7405830;19;1982;-44
2023/01/07 04:12:40;;;;;;;;;;;;;;;17.94;68.60;101748.94;7406870;19;1791;-44
2023/01/07 04:15:09;;;;;;;;;;;;;;;17.87;68.68;101729.78;7406449;19;1940;-44
2023/01/07 04:17:37;;;;;;;;;;;;;;;17.87;68.90;101745.81;7405320;19;1975;-44
2023/01/07 04:20:06;;;;;;;;;;;;;;;17.78;68.89;101742.88;7406094;19;2023;-44
2023/01/07 04:22:34;;;;;;;;;;;;;;;17.76;69.29;101742.13;7406934;19;1867;-44
2023/01/07 04:25:03;;;;;;;;;;;;;;;17.73;69.06;101739.69;7406587;19;1893;-44
2023/01/07 04:27:34;;;;;;;;;;;;;;;17.67;69.45;101740.94;7406693;19;1687;-44
2023/01/07 04:30:02;;;;;;;;;;;;;;;17.66;69.30;101741.88;7405048;19;1132;-43
2023/01/07 04:32:30;;;;;;;;;;;;;;;17.63;69.65;101740.28;7406170;19;2362;-44
2023/01/07 04:34:58;;;;;;;;;;;;;;;17.67;70.40;101736.44;7406295;19;1999;-43
2023/01/07 04:37:27;;;;;;;;;;;;;;;18.52;67.85;101751.22;7405219;19;1856;-44
2023/01/07 04:39:55;;;;;;;;;;;;;;;19.03;66.37;101754.69;7404202;19;1928;-44
2023/01/07 04:42:23;;;;;;;;;;;;;;;19.33;65.17;101729.25;7402522;19;979;-44
2023/01/07 04:44:54;;;;;;;;;;;;;;;19.55;65.19;101741.06;7405665;19;2112;-44
2023/01/07 04:47:23;;;;;;;;;;;;;;;19.71;64.60;101740.78;7405384;19;2048;-44
2023/01/07 04:49:51;;;;;;;;;;;;;;;19.78;64.60;101760.84;7404380;19;2077;-44
2023/01/07 04:52:19;;;;;;;;;;;;;;;19.65;64.98;101750.13;7405414;19;1898;-44
2023/01/07 04:54:48;;;;;;;;;;;;;;;19.05;66.59;101735.81;7404331;19;1747;-44
2023/01/07 04:57:16;;;;;;;;;;;;;;;18.60;67.91;101755.06;7404321;19;1861;-44
2023/01/07 04:59:44;;;;;;;;;;;;;;;18.27;68.86;101750.25;7404975;19;1852;-44
2023/01/07 05:02:15;;;;;;;;;;;;;;;18.07;69.04;101754.31;7404656;19;1982;-44
2023/01/07 05:04:43;;;;;;;;;;;;;;;17.98;69.27;101755.78;7405145;19;1820;-44
2023/01/07 05:07:12;;;;;;;;;;;;;;;17.89;69.90;101759.97;7403587;19;1819;-44
2023/01/07 05:09:40;;;;;;;;;;;;;;;17.84;69.93;101772.78;7403750;19;1736;-44
2023/01/07 05:12:08;;;;;;;;;;;;;;;17.77;70.02;101773.28;7405279;19;1542;-44
2023/01/07 05:14:37;;;;;;;;;;;;;;;17.76;70.10;101776.91;7404774;19;2065;-44
2023/01/07 05:17:05;;;;;;;;;;;;;;;17.73;70.17;101774.44;7404266;19;1978;-44
2023/01/07 05:19:36;;;;;;;;;;;;;;;17.69;70.27;101782.66;7403648;19;1827;-44
2023/01/07 05:22:05;;;;;;;;;;;;;;;17.61;69.92;101774.31;7404546;19;1765;-44
2023/01/07 05:24:33;;;;;;;;;;;;;;;17.64;71.02;101775.91;7403628;19;1907;-43
2023/01/07 05:27:01;;;;;;;;;;;;;;;18.43;68.39;101776.81;7404351;19;1024;-44
2023/01/07 05:29:29;;;;;;;;;;;;;;;19.10;66.56;101760.47;7401960;19;2093;-44
2023/01/07 05:31:58;;;;;;;;;;;;;;;19.45;65.56;101765.91;7403993;19;1788;-44
2023/01/07 05:34:26;;;;;;;;;;;;;;;19.45;65.53;101776.63;7403391;19;1829;-44
2023/01/07 05:36:57;;;;;;;;;;;;;;;19.63;65.28;101778.91;7402617;19;2085;-44
2023/01/07 05:39:25;;;;;;;;;;;;;;;19.70;65.08;101768.59;7401437;19;1855;-44
2023/01/07 05:41:54;;;;;;;;;;;;;;;19.68;65.23;101774.06;7405070;19;1109;-44
2023/01/07 05:44:22;;;;;;;;;;;;;;;19.16;66.44;101783.28;7403426;19;2038;-44
2023/01/07 05:46:50;;;;;;;;;;;;;;;18.62;67.74;101779.06;7403440;19;1847;-44
2023/01/07 05:49:18;;;;;;;;;;;;;;;18.23;69.10;101783.56;7403065;19;1829;-43
2023/01/07 05:51:47;;;;;;;;;;;;;;;18.09;69.46;101784.50;7402372;19;1931;-44
2023/01/07 05:54:17;;;;;;;;;;;;;;;17.95;69.62;101780.09;7400747;19;2015;-44
2023/01/07 05:56:47;;;;;;;;;;;;;;;17.81;69.96;101770.28;7404659;19;1123;-44
2023/01/07 05:59:15;;;;;;;;;;;;;;;17.76;70.21;101785.78;7400495;19;1834;-44
2023/01/07 06:01:43;;;;;;;;;;;;;;;17.72;70.47;101788.78;7402462;19;1614;-43
2023/01/07 06:04:12;;;;;;;;;;;;;;;17.76;70.22;101798.31;7403327;19;1769;-44
2023/01/07 06:06:40;;;;;;;;;;;;;;;17.65;70.36;101785.66;7401582;19;1903;-44
2023/01/07 06:09:08;;;;;;;;;;;;;;;17.58;70.99;101790.53;7403645;19;1664;-43
2023/01/07 06:11:39;;;;;;;;;;;;;;;17.56;70.74;101789.78;7401913;19;1496;-43
2023/01/07 06:14:08;;;;;;;;;;;;;;;17.59;70.89;101797.63;7400844;19;1468;-44
2023/01/07 06:16:37;;;;;;;;;;;;;;;17.53;70.79;101799.81;7400563;19;1528;-43
2023/01/07 06:19:05;;;;;;;;;;;;;;;17.51;70.70;101810.63;7398160;19;1873;-44
2023/01/07 06:21:33;;;;;;;;;;;;;;;17.55;70.95;101811.28;7400462;19;1540;-44
2023/01/07 06:24:02;;;;;;;;;;;;;;;17.55;71.70;101816.63;7401272;19;1371;-44
2023/01/07 06:26:30;;;;;;;;;;;;;;;18.11;69.53;101798.66;7400925;19;2837;-44
2023/01/07 06:29:01;;;;;;;;;;;;;;;18.83;67.45;101795.47;7400060;19;2030;-44
2023/01/07 06:31:29;;;;;;;;;;;;;;;19.21;67.14;101789.19;7400021;19;1612;-44
2023/01/07 06:33:58;;;;;;;;;;;;;;;19.35;66.80;101793.53;7398429;19;1631;-44
2023/01/07 06:36:27;;;;;;;;;;;;;;;19.52;66.72;101782.41;7398690;19;1790;-43
2023/01/07 06:38:55;;;;;;;;;;;;;;;19.63;66.28;101781.59;7398128;19;1857;-44
2023/01/07 06:41:23;;;;;;;;;;;;;;;19.63;66.40;101785.13;7399133;19;1906;-44
2023/01/07 06:43:52;;;;;;;;;;;;;;;19.14;67.71;101793.25;7398693;19;1988;-44
2023/01/07 06:46:22;;;;;;;;;;;;;;;18.65;69.10;101798.44;7399765;19;1788;-43
2023/01/07 06:48:51;;;;;;;;;;;;;;;18.31;70.38;101797.28;7398588;19;1871;-43
2023/01/07 06:51:19;;;;;;;;;;;;;;;18.08;70.92;101801.53;7396180;19;1797;-43
2023/01/07 06:53:47;;;;;;;;;;;;;;;17.95;70.88;101785.44;7390535;19;1747;-43
2023/01/07 06:56:16;;;;;;;;;;;;;;;17.86;71.58;101784.22;7399013;19;1584;-43
2023/01/07 06:58:44;;;;;;;;;;;;;;;17.79;71.71;101804.31;7397748;19;1898;-44
2023/01/07 07:01:12;;;;;;;;;;;;;;;17.77;72.06;101800.88;7398680;19;1986;-44
2023/01/07 07:03:43;;;;;;;;;;;;;;;17.74;71.88;101811.78;7398618;19;1714;-43
2023/01/07 07:06:12;;;;;;;;;;;;;;;17.67;71.79;101803.31;7398627;19;1526;-44
2023/01/07 07:08:40;;;;;;;;;;;;;;;17.65;71.77;101797.22;7399586;19;1582;-43
2023/01/07 07:11:09;;;;;;;;;;;;;;;17.62;71.92;101810.78;7398383;19;1881;-45
2023/01/07 07:13:37;;;;;;;;;;;;;;;17.58;72.48;101800.38;7398306;19;1724;-44
2023/01/07 07:16:05;;;;;;;;;;;;;;;18.14;71.12;101798.41;7398338;19;1678;-43
2023/01/07 07:18:34;;;;;;;;;;;;;;;18.77;69.34;101790.53;7397329;19;2235;-43
2023/01/07 07:21:04;;;;;;;;;;;;;;;19.23;67.79;101788.09;7397957;19;1625;-43
2023/01/07 07:23:33;;;;;;;;;;;;;;;19.43;67.14;101777.72;7398150;19;1662;-43
2023/01/07 07:26:01;;;;;;;;;;;;;;;19.62;66.50;101777.22;7398411;19;1797;-43
2023/01/07 07:28:29;;;;;;;;;;;;;;;19.78;66.34;101782.31;7396343;19;2016;-44
2023/01/07 07:30:58;;;;;;;;;;;;;;;19.92;66.56;101781.28;7398036;19;1788;-43
2023/01/07 07:33:26;;;;;;;;;;;;;;;19.67;66.85;101777.72;7405062;19;1654;-43
2023/01/07 07:35:54;;;;;;;;;;;;;;;19.15;69.69;101773.53;7404754;19;1685;-41
2023/01/07 07:38:26;;;;;;;;;;;;;;;18.91;70.65;101782.38;7405462;19;1927;-41
2023/01/07 07:40:55;;;;;;;;;;;;;;;18.72;69.91;101787.31;7406242;19;2094;-47
2023/01/07 07:43:23;;;;;;;;;;;;;;;18.50;71.16;101788.81;7405857;19;1551;-41
2023/01/07 07:45:52;;;;;;;;;;;;;;;18.34;69.87;101772.94;7405939;19;1982;-41
2023/01/07 07:48:20;;;;;;;;;;;;;;;18.07;68.58;101783.75;7406303;19;1638;-41
2023/01/07 07:50:51;;;;;;;;;;;;;;;17.95;69.38;101776.56;7404475;19;1555;-41
2023/01/07 07:53:21;;;;;;;;;;;;;;;17.96;69.38;101779.13;7407211;19;1895;-41
2023/01/07 07:55:52;;;;;;;;;;;;;;;18.05;68.94;101789.22;7407766;19;1987;-41
2023/01/07 07:58:20;;;;;;;;;;;;;;;18.08;70.18;101774.75;7404096;19;1979;-41
2023/01/07 08:00:48;;;;;;;;;;;;;;;18.11;69.49;101781.75;7404454;19;1752;-42
2023/01/07 08:03:17;;;;;;;;;;;;;;;18.03;69.39;101799.16;7406672;19;1841;-42
2023/01/07 08:05:45;;;;;;;;;;;;;;;18.07;69.50;101787.28;7407965;19;1026;-41
2023/01/07 08:08:14;;;;;;;;;;;;;;;18.20;69.39;101789.97;7406985;19;2190;-41
2023/01/07 08:10:42;;;;;;;;;;;;;;;18.22;69.60;101793.44;7407413;19;1901;-41
2023/01/07 08:13:13;;;;;;;;;;;;;;;18.32;70.13;101774.88;7404130;19;1929;-41
2023/01/07 08:15:42;;;;;;;;;;;;;;;18.33;69.78;101786.47;7407515;19;1645;-42
2023/01/07 08:18:11;;;;;;;;;;;;;;;18.35;69.79;101766.66;7407508;19;1845;-41
2023/01/07 08:20:39;;;;;;;;;;;;;;;18.53;69.78;101791.28;7407261;19;1636;-42
2023/01/07 08:23:09;;;;;;;;;;;;;;;18.56;69.29;101790.19;7407488;19;2038;-40
2023/01/07 08:25:38;;;;;;;;;;;;;;;18.40;69.10;101785.94;7406674;19;2086;-41
2023/01/07 08:28:06;;;;;;;;;;;;;;;18.34;67.92;101786.34;7404244;19;1863;-41
2023/01/07 08:30:37;;;;;;;;;;;;;;;18.04;62.72;101791.97;7401834;19;2014;-41
2023/01/07 08:33:07;;;;;;;;;;;;;;;17.86;65.91;101797.59;7405276;19;1897;-41
2023/01/07 08:35:36;;;;;;;;;;;;;;;17.94;65.95;101802.44;7401609;19;1906;-41
2023/01/07 08:38:05;;;;;;;;;;;;;;;17.97;66.45;101790.72;7403954;19;2084;-41
2023/01/07 08:40:34;;;;;;;;;;;;;;;17.94;66.82;101806.94;7403262;19;2062;-41
2023/01/07 08:43:02;;;;;;;;;;;;;;;17.85;67.22;101811.97;7404681;19;1741;-41
2023/01/07 08:45:30;;;;;;;;;;;;;;;18.12;65.40;101799.50;7406633;19;1641;-41
2023/01/07 08:48:01;;;;;;;;;;;;;;;18.73;62.65;101799.75;7405693;19;2081;-41
2023/01/07 08:50:32;;;;;;;;;;;;;;;19.60;59.71;101797.94;7405988;19;2227;-41
2023/01/07 08:53:00;;;;;;;;;;;;;;;19.88;58.92;101799.44;7405350;19;2106;-41
2023/01/07 08:55:29;;;;;;;;;;;;;;;20.21;57.90;101790.63;7406210;19;1887;-41
2023/01/07 08:57:57;;;;;;;;;;;;;;;20.24;58.09;101795.75;7405285;19;1809;-41
2023/01/07 09:00:25;;;;;;;;;;;;;;;20.24;58.38;101792.22;7403709;19;1854;-41
2023/01/07 09:02:54;;;;;;;;;;;;;;;20.31;57.80;101792.59;7403009;19;1621;-41
2023/01/07 09:05:25;;;;;;;;;;;;;;;20.33;57.86;101793.31;7403508;19;1776;-41
2023/01/07 09:07:54;;;;;;;;;;;;;;;20.28;58.36;101796.38;7404134;19;2079;-41
2023/01/07 09:10:23;;;;;;;;;;;;;;;19.63;59.96;101803.06;7404861;19;1794;-41
2023/01/07 09:12:51;;;;;;;;;;;;;;;19.22;61.94;101796.25;7404385;19;1716;-41
2023/01/07 09:15:20;;;;;;;;;;;;;;;18.89;62.61;101795.03;7404159;19;1214;-41
2023/01/07 09:17:48;;;;;;;;;;;;;;;18.79;63.49;101804.66;7404723;19;1419;-41
2023/01/07 09:20:16;;;;;;;;;;;;;;;18.69;64.36;101799.94;7401291;19;1846;-41
2023/01/07 09:22:48;;;;;;;;;;;;;;;18.73;65.42;101815.81;7403888;19;2124;-41
2023/01/07 09:25:16;;;;;;;;;;;;;;;18.84;65.74;101786.44;7403933;19;1761;-42
2023/01/07 09:27:44;;;;;;;;;;;;;;;18.87;65.78;101786.25;7403969;19;1740;-41
2023/01/07 09:30:13;;;;;;;;;;;;;;;18.99;65.93;101793.41;7402965;19;1804;-41
2023/01/07 09:32:41;;;;;;;;;;;;;;;18.89;66.01;101787.00;7403621;19;1857;-41
2023/01/07 09:35:11;;;;;;;;;;;;;;;18.78;67.04;101785.06;7403101;19;2030;-42
2023/01/07 09:37:39;;;;;;;;;;;;;;;19.10;66.74;101791.75;7402985;19;1934;-41
2023/01/07 09:40:16;;;;;;;;;;;;;;;19.20;67.51;101792.81;7402200;19;1862;-41
2023/01/07 09:42:48;;;;;;;;;;;;;;;19.28;67.74;101790.44;7403984;19;1992;-41
2023/01/07 09:45:18;;;;;;;;;;;;;;;19.25;68.18;101783.47;7404209;19;1384;-42
2023/01/07 09:47:48;;;;;;;;;;;;;;;19.21;68.46;101773.09;7403848;19;1845;-41
2023/01/07 09:50:20;;;;;;;;;;;;;;;19.24;68.57;101770.19;7402926;19;1853;-41
2023/01/07 09:52:51;;;;;;;;;;;;;;;19.23;68.49;101763.09;7401712;19;1899;-40
2023/01/07 09:55:24;;;;;;;;;;;;;;;19.00;68.39;101773.69;7399155;19;1520;-41
2023/01/07 09:57:52;;;;;;;;;;;;;;;18.91;68.76;101755.56;7402031;19;1723;-40
2023/01/07 10:00:24;;;;;;;;;;;;;;;19.05;68.81;101763.47;7398775;19;2222;-41
2023/01/07 10:02:59;;;;;;;;;;;;;;;18.97;68.63;101748.91;7403053;19;1668;-41
2023/01/07 10:05:33;;;;;;;;;;;;;;;19.03;68.85;101743.97;7402068;19;2039;-41
2023/01/07 10:08:05;;;;;;;;;;;;;;;19.18;68.22;101749.16;7402861;19;2056;-40
2023/01/07 10:10:42;;;;;;;;;;;;;;;19.12;68.68;101745.13;7401682;19;2087;-41
2023/01/07 10:13:17;;;;;;;;;;;;;;;19.07;69.23;101739.22;7402080;19;1797;-41
2023/01/07 10:15:53;;;;;;;;;;;;;;;19.10;68.70;101748.88;7402192;19;1815;-42
2023/01/07 10:18:32;;;;;;;;;;;;;;;19.20;68.55;101729.34;7401704;19;1765;-41
2023/01/07 10:21:03;;;;;;;;;;;;;;;19.22;68.79;101746.16;7399221;19;1912;-40
2023/01/07 10:23:34;;;;;;;;;;;;;;;19.05;69.72;101731.31;7402617;19;1606;-42
2023/01/07 10:26:07;;;;;;;;;;;;;;;19.16;70.17;101730.53;7403591;19;1666;-41
2023/01/07 10:28:37;;;;;;;;;;;;;;;19.24;69.58;101732.66;7397371;19;1767;-40
2023/01/07 10:31:07;;;;;;;;;;;;;;;19.16;70.38;101718.94;7399899;19;1950;-40
2023/01/07 10:33:36;;;;;;;;;;;;;;;19.28;70.06;101742.19;7400499;19;1754;-41
2023/01/07 10:36:10;;;;;;;;;;;;;;;19.27;70.60;101725.22;7402106;19;1626;-39
2023/01/07 10:38:42;;;;;;;;;;;;;;;19.25;71.08;101729.84;7398947;19;1766;-41
2023/01/07 10:41:17;;;;;;;;;;;;;;;19.40;70.48;101716.28;7400632;19;1854;-41
2023/01/07 10:43:52;;;;;;;;;;;;;;;19.21;69.87;101706.03;7400387;19;1775;-40
2023/01/07 10:46:30;;;;;;;;;;;;;;;19.03;70.63;101706.44;7400316;19;1779;-41
2023/01/07 10:49:07;;;;;;;;;;;;;;;19.02;70.13;101712.78;7400681;19;1813;-40
2023/01/07 10:51:45;;;;;;;;;;;;;;;18.92;70.52;101692.97;7399328;19;1952;-41
2023/01/07 10:54:21;;;;;;;;;;;;;;;18.89;70.06;101682.47;7398633;19;1669;-41
2023/01/07 10:56:53;;;;;;;;;;;;;;;18.80;70.08;101683.13;7401231;19;1609;-41
2023/01/07 10:59:23;;;;;;;;;;;;;;;18.86;68.86;101698.75;7396948;19;2079;-41
2023/01/07 11:01:53;;;;;;;;;;;;;;;18.69;68.87;101682.06;7396642;19;1744;-41
2023/01/07 11:04:21;;;;;;;;;;;;;;;18.72;68.65;101689.03;7396239;19;1951;-41
2023/01/07 11:06:52;;;;;;;;;;;;;;;18.74;67.89;101689.78;7394718;19;1611;-41
2023/01/07 11:09:22;;;;;;;;;;;;;;;18.72;68.60;101680.13;7396891;19;1741;-41
2023/01/07 11:11:53;;;;;;;;;;;;;;;18.73;68.17;101666.63;7396652;19;1554;-41
2023/01/07 11:14:23;;;;;;;;;;;;;;;18.76;68.10;101682.50;7397073;19;1898;-41
2023/01/07 11:16:54;;;;;;;;;;;;;;;18.71;68.65;101659.69;7399936;19;1917;-42
2023/01/07 11:19:23;;;;;;;;;;;;;;;18.72;68.59;101654.22;7399225;19;1866;-42
2023/01/07 11:21:51;;;;;;;;;;;;;;;18.71;68.78;101641.78;7397872;19;1759;-41
2023/01/07 11:24:31;;;;;;;;;;;;;;;18.60;69.34;101650.59;7399977;19;2263;-41
2023/01/07 11:27:06;;;;;;;;;;;;;;;18.46;69.80;101631.97;7400268;19;1809;-41
2023/01/07 11:29:38;;;;;;;;;;;;;;;18.64;69.42;101636.00;7398210;19;1879;-41
2023/01/07 11:32:07;;;;;;;;;;;;;;;18.61;69.82;101641.59;7400218;19;1930;-41
2023/01/07 11:34:37;;;;;;;;;;;;;;;18.45;69.69;101635.63;7399615;19;1958;-42
2023/01/07 11:37:06;;;;;;;;;;;;;;;18.38;69.77;101629.00;7336188;19;13804;-41
2023/01/07 11:39:36;;;;;;;;;;;;;;;18.40;69.41;101637.78;7397003;19;1859;-41
2023/01/07 11:45:09;;;;;;;;;;;;;;;18.23;69.92;101626.44;7396130;19;2020;-41
2023/01/07 11:47:38;;;;;;;;;;;;;;;18.34;69.74;101632.84;7399493;19;1978;-41
2023/01/07 11:50:08;;;;;;;;;;;;;;;18.34;69.75;101633.72;7397528;19;1758;-41
2023/01/07 11:52:36;;;;;;;;;;;;;;;18.29;69.78;101634.03;7398826;19;1638;-41
2023/01/07 11:55:05;;;;;;;;;;;;;;;18.44;69.37;101628.53;7399501;19;1977;-41
2023/01/07 11:57:36;;;;;;;;;;;;;;;19.08;67.13;101631.91;7399472;19;1811;-41
2023/01/07 12:00:15;;;;;;;;;;;;;;;19.62;65.27;101635.00;7397823;19;1858;-41
2023/01/07 12:02:43;;;;;;;;;;;;;;;19.88;65.23;101632.16;7396597;19;1756;-41
2023/01/07 12:05:18;;;;;;;;;;;;;;;20.23;64.40;101622.16;7398238;19;1972;-41
2023/01/07 12:07:47;;;;;;;;;;;;;;;20.22;64.44;101636.56;7397307;19;1797;-41
2023/01/07 12:10:32;;;;;;;;;;;;;;;20.24;64.84;101623.00;7398894;19;2685;-41
2023/01/07 12:13:04;;;;;;;;;;;;;;;19.62;68.12;101635.84;7399075;19;1650;-41
2023/01/07 12:15:33;;;;;;;;;;;;;;;19.34;69.01;101626.41;7398982;19;1768;-41
2023/01/07 12:18:21;;;;;;;;;;;;;;;19.11;69.67;101621.91;7403562;19;1647;-41
2023/01/07 12:20:58;;;;;;;;;;;;;;;18.88;70.85;101627.19;7404426;19;1874;-41
2023/01/07 12:23:34;;;;;;;;;;;;;;;18.86;71.24;101603.16;7406253;19;1949;-41
2023/01/07 12:26:08;;;;;;;;;;;;;;;18.80;71.56;101613.47;7406393;19;1905;-41
2023/01/07 12:28:47;;;;;;;;;;;;;;;18.64;72.07;101627.97;7404796;19;1988;-41
2023/01/07 12:31:25;;;;;;;;;;;;;;;18.63;72.42;101618.22;7404724;19;1986;-41
2023/01/07 12:34:02;;;;;;;;;;;;;;;18.53;73.11;101610.97;7404929;19;1766;-41
2023/01/07 12:36:36;;;;;;;;;;;;;;;18.46;73.31;101599.84;7404895;19;1740;-41
2023/01/07 12:39:06;;;;;;;;;;;;;;;18.42;73.08;101599.22;7404918;19;1976;-41
2023/01/07 12:41:39;;;;;;;;;;;;;;;18.35;73.28;101587.22;7403606;19;1849;-41
2023/01/07 12:44:14;;;;;;;;;;;;;;;18.46;73.45;101590.00;7403595;19;1996;-39
2023/01/07 12:46:46;;;;;;;;;;;;;;;18.49;73.20;101604.97;7404131;19;1749;-39
2023/01/07 12:49:17;;;;;;;;;;;;;;;18.47;72.99;101601.56;7404259;19;2129;-39
2023/01/07 12:51:51;;;;;;;;;;;;;;;18.37;73.22;101590.66;7403792;19;1807;-39
2023/01/07 12:54:21;;;;;;;;;;;;;;;18.35;72.80;101586.38;7403378;19;1737;-39
2023/01/07 12:56:52;;;;;;;;;;;;;;;18.23;73.07;101590.81;7404922;19;1887;-39
2023/01/07 12:59:26;;;;;;;;;;;;;;;18.24;72.61;101603.22;7402905;19;1758;-39
2023/01/07 13:01:57;;;;;;;;;;;;;;;18.19;71.95;101600.88;7400903;19;1998;-39
2023/01/07 13:04:33;;;;;;;;;;;;;;;18.35;72.17;101587.22;7403672;19;1730;-39
2023/01/07 13:07:03;;;;;;;;;;;;;;;18.92;70.13;101593.81;7403227;19;1984;-39
2023/01/07 13:09:36;;;;;;;;;;;;;;;19.38;69.37;101587.63;7403631;19;1794;-40
2023/01/07 13:14:56;;;;;;;;;;;;;;;19.88;68.66;101590.06;7401474;19;2417;-40